Time;durP1;ratioP1;P1;durP2;ratioP2;P2;SDS_P1;SDS_P2;PMS_P1;PMS_P2;Temp;Humidity;BMP_temperature;BMP_pressure;BME280_temperature;BME280_humidity;BME280_pressure;Samples;Min_cycle;Max_cycle;Signal;HPM_P1;HPM_P2
2023/09/03 00:02:02;;;;;;;0.85;0.50;;;16.10;99.90;;;;;;4963629;28;20038;-87
2023/09/03 00:04:28;;;;;;;0.93;0.52;;;16.10;99.90;;;;;;4955981;28;20054;-87
2023/09/03 00:06:54;;;;;;;3.17;0.63;;;16.10;99.90;;;;;;4955413;28;20039;-87
2023/09/03 00:09:20;;;;;;;2.20;0.45;;;16.00;99.90;;;;;;4963404;28;20045;-86
2023/09/03 00:11:46;;;;;;;1.65;1.25;;;16.00;99.90;;;;;;4949839;28;20054;-87
2023/09/03 00:14:13;;;;;;;7.75;1.42;;;16.00;99.90;;;;;;4971189;28;20030;-87
2023/09/03 00:16:39;;;;;;;1.98;0.43;;;16.00;99.90;;;;;;4962077;28;20039;-87
2023/09/03 00:19:05;;;;;;;0.93;0.60;;;15.90;99.90;;;;;;4965351;28;20034;-87
2023/09/03 00:21:31;;;;;;;1.45;0.50;;;15.90;99.90;;;;;;4959768;28;20034;-87
2023/09/03 00:23:58;;;;;;;1.15;0.60;;;16.00;99.90;;;;;;4953597;28;20062;-87
2023/09/03 00:26:26;;;;;;;2.15;0.57;;;16.00;99.90;;;;;;4951842;28;20039;-87
2023/09/03 00:28:57;;;;;;;1.02;0.93;;;15.90;99.90;;;;;;4961788;28;20416;-87
2023/09/03 00:31:25;;;;;;;2.15;0.50;;;15.80;99.90;;;;;;4962448;28;20044;-87
2023/09/03 00:33:54;;;;;;;2.53;0.73;;;15.70;99.90;;;;;;4953653;28;20392;-87
2023/09/03 00:36:20;;;;;;;0.95;0.75;;;15.70;99.90;;;;;;4964924;28;20042;-87
2023/09/03 00:38:49;;;;;;;1.70;0.50;;;15.70;99.90;;;;;;4967552;28;20487;-87
2023/09/03 00:41:16;;;;;;;0.60;0.52;;;15.70;99.90;;;;;;4960281;28;20465;-87
2023/09/03 00:43:42;;;;;;;2.35;1.30;;;15.80;99.90;;;;;;4962956;28;20035;-87
2023/09/03 00:46:09;;;;;;;1.50;0.57;;;15.80;99.90;;;;;;4971477;28;20047;-87
2023/09/03 00:48:36;;;;;;;3.35;1.10;;;15.80;99.90;;;;;;4967515;28;20037;-88
2023/09/03 00:51:08;;;;;;;2.45;0.40;;;15.80;99.90;;;;;;4955537;28;20042;-87
2023/09/03 00:53:37;;;;;;;1.52;1.05;;;15.80;99.90;;;;;;4974714;28;20045;-87
2023/09/03 00:56:03;;;;;;;2.95;0.70;;;15.80;99.90;;;;;;4962118;28;20051;-87
2023/09/03 00:58:30;;;;;;;1.75;0.73;;;15.80;99.90;;;;;;4943217;28;20460;-87
2023/09/03 01:00:58;;;;;;;1.55;0.90;;;15.80;99.90;;;;;;4945207;28;20110;-87
2023/09/03 01:03:26;;;;;;;2.53;0.90;;;15.70;99.90;;;;;;4953689;28;20051;-87
2023/09/03 01:05:52;;;;;;;2.35;0.80;;;15.70;99.90;;;;;;4956135;28;20035;-87
2023/09/03 01:08:19;;;;;;;1.27;0.68;;;15.70;99.90;;;;;;4942780;28;20042;-87
2023/09/03 01:11:10;;;;;;;2.50;0.82;;;15.70;99.90;;;;;;4958146;28;20511;-87
2023/09/03 01:14:00;;;;;;;1.65;0.68;;;15.70;1.00;;;;;;4962532;28;20039;-87
2023/09/03 01:16:36;;;;;;;2.08;0.57;;;15.70;99.90;;;;;;4948515;29;20047;-88
2023/09/03 01:19:12;;;;;;;2.38;0.88;;;15.80;99.90;;;;;;4962404;28;20027;-87
2023/09/03 01:21:48;;;;;;;1.17;0.57;;;15.80;99.90;;;;;;4961515;28;20031;-87
2023/09/03 01:24:48;;;;;;;1.38;0.63;;;15.80;99.90;;;;;;4958310;28;20051;-87
2023/09/03 01:27:33;;;;;;;1.25;0.75;;;15.80;99.90;;;;;;4942504;28;20503;-87
2023/09/03 01:30:01;;;;;;;1.80;0.55;;;15.90;99.90;;;;;;4934920;28;20057;-87
2023/09/03 01:32:27;;;;;;;1.83;1.10;;;15.90;99.90;;;;;;4959984;28;20043;-87
2023/09/03 01:34:54;;;;;;;1.02;0.50;;;15.90;99.90;;;;;;4964557;28;20473;-87
2023/09/03 01:37:21;;;;;;;1.50;0.35;;;15.80;99.90;;;;;;4967659;28;20062;-87
2023/09/03 01:39:47;;;;;;;2.70;0.75;;;15.90;99.90;;;;;;4960187;28;20459;-87
2023/09/03 01:42:13;;;;;;;1.05;0.50;;;15.80;99.90;;;;;;4958901;28;20087;-88
2023/09/03 01:44:40;;;;;;;0.93;0.45;;;15.80;99.90;;;;;;4961091;28;20384;-88
2023/09/03 01:47:18;;;;;;;1.63;0.68;;;15.80;99.90;;;;;;4960195;28;20043;-87
2023/09/03 01:49:55;;;;;;;0.82;0.73;;;15.70;99.90;;;;;;4958428;28;20031;-87
2023/09/03 01:52:38;;;;;;;2.35;1.10;;;15.70;1.00;;;;;;4961902;28;20038;-87
2023/09/03 01:55:12;;;;;;;5.47;1.58;;;15.60;1.00;;;;;;4959000;28;20826;-87
2023/09/03 01:57:44;;;;;;;0.80;0.52;;;15.60;1.00;;;;;;4961987;28;20062;-88
2023/09/03 02:00:14;;;;;;;3.83;0.75;;;15.60;1.00;;;;;;4945236;28;20054;-88
2023/09/03 02:02:43;;;;;;;1.90;1.15;;;15.50;1.00;;;;;;4970032;28;20054;-88
2023/09/03 02:05:12;;;;;;;1.95;0.88;;;15.50;1.00;;;;;;4957073;28;20051;-87
2023/09/03 02:07:38;;;;;;;1.92;0.82;;;15.50;1.00;;;;;;4961183;28;20050;-87
2023/09/03 02:10:05;;;;;;;1.85;1.23;;;15.50;1.00;;;;;;4961187;28;20041;-86
2023/09/03 02:12:31;;;;;;;1.58;0.77;;;15.40;1.00;;;;;;4944598;28;20043;-88
2023/09/03 02:14:58;;;;;;;2.45;0.77;;;15.40;1.00;;;;;;4959268;28;20035;-87
2023/09/03 02:17:26;;;;;;;1.20;0.70;;;15.40;1.00;;;;;;4956235;28;20039;-88
2023/09/03 02:19:54;;;;;;;2.03;0.70;;;15.40;1.00;;;;;;4955265;28;20042;-87
2023/09/03 02:22:20;;;;;;;1.67;0.80;;;15.40;1.00;;;;;;4967119;28;20039;-87
2023/09/03 02:24:47;;;;;;;1.52;0.50;;;15.40;1.00;;;;;;4943235;28;20059;-87
2023/09/03 02:27:13;;;;;;;2.08;1.52;;;15.40;1.00;;;;;;4963886;28;20039;-87
2023/09/03 02:29:39;;;;;;;2.53;0.93;;;15.40;1.00;;;;;;4964363;28;20034;-87
2023/09/03 02:32:06;;;;;;;2.50;1.25;;;15.40;1.00;;;;;;4962216;28;20408;-88
2023/09/03 02:34:33;;;;;;;1.88;1.13;;;15.40;1.00;;;;;;4966856;28;20043;-87
2023/09/03 02:36:59;;;;;;;1.15;0.60;;;15.40;1.00;;;;;;4965033;28;20042;-88
2023/09/03 02:39:25;;;;;;;1.83;1.08;;;15.40;1.00;;;;;;4964404;28;20027;-87
2023/09/03 02:41:52;;;;;;;3.25;0.60;;;15.30;1.00;;;;;;4953435;28;20066;-88
2023/09/03 02:44:18;;;;;;;2.35;1.50;;;15.30;1.00;;;;;;4966523;28;20038;-88
2023/09/03 02:46:44;;;;;;;3.25;0.60;;;15.30;1.00;;;;;;4969075;28;20035;-87
2023/09/03 02:49:10;;;;;;;1.67;1.05;;;15.30;1.00;;;;;;4954348;28;20043;-87
2023/09/03 02:51:38;;;;;;;2.88;1.65;;;15.30;1.00;;;;;;4958277;28;20050;-88
2023/09/03 02:54:06;;;;;;;2.22;0.98;;;15.30;1.00;;;;;;4955072;28;20070;-88
2023/09/03 02:56:33;;;;;;;1.77;1.55;;;15.30;1.00;;;;;;4961173;28;20051;-88
2023/09/03 02:59:00;;;;;;;2.97;1.63;;;15.40;1.00;;;;;;4943288;28;20050;-88
2023/09/03 03:01:26;;;;;;;2.15;1.77;;;15.40;1.00;;;;;;4955241;28;20043;-88
2023/09/03 03:03:52;;;;;;;2.38;2.00;;;15.40;1.00;;;;;;4965347;28;20038;-88
2023/09/03 03:06:18;;;;;;;2.92;1.42;;;15.50;1.00;;;;;;4965129;28;20035;-88
2023/09/03 03:08:45;;;;;;;2.22;1.42;;;15.60;2.40;;;;;;4939443;29;20039;-88
2023/09/03 03:11:14;;;;;;;3.50;1.70;;;15.60;29.50;;;;;;4966437;28;20043;-87
2023/09/03 03:13:47;;;;;;;4.70;3.58;;;15.70;58.00;;;;;;4968758;28;20055;-87
2023/09/03 03:16:15;;;;;;;3.55;1.88;;;15.70;91.40;;;;;;4940248;28;20047;-87
2023/09/03 03:18:45;;;;;;;4.18;2.55;;;15.80;99.90;;;;;;4968679;28;20035;-87
2023/09/03 03:21:17;;;;;;;3.72;2.78;;;15.90;99.90;;;;;;4945347;28;20046;-88
2023/09/03 03:23:47;;;;;;;1.90;1.30;;;15.90;99.90;;;;;;4965170;28;20035;-88
2023/09/03 03:26:15;;;;;;;3.80;1.58;;;15.90;99.90;;;;;;4959869;28;20055;-88
2023/09/03 03:28:41;;;;;;;3.55;2.00;;;15.90;99.90;;;;;;4967136;28;20027;-88
2023/09/03 03:31:17;;;;;;;4.53;2.47;;;15.90;99.90;;;;;;4962140;28;20054;-87
2023/09/03 03:33:47;;;;;;;3.85;1.65;;;15.80;99.90;;;;;;4956703;28;20062;-88
2023/09/03 03:36:16;;;;;;;9.10;3.25;;;15.80;99.90;;;;;;4959506;28;20404;-88
2023/09/03 03:38:43;;;;;;;4.03;1.75;;;15.80;99.90;;;;;;4959342;28;20039;-88
2023/09/03 03:41:10;;;;;;;2.90;1.67;;;15.80;99.90;;;;;;4956548;28;20492;-88
2023/09/03 03:43:43;;;;;;;2.53;1.85;;;15.80;98.40;;;;;;4939351;28;20046;-88
2023/09/03 03:46:13;;;;;;;1.95;1.70;;;15.70;97.00;;;;;;4944207;28;20066;-88
2023/09/03 03:48:40;;;;;;;3.17;2.10;;;15.70;93.00;;;;;;4958472;28;20054;-89
2023/09/03 03:51:07;;;;;;;2.10;1.20;;;15.70;72.00;;;;;;4958830;28;20472;-87
2023/09/03 03:53:33;;;;;;;5.85;2.60;;;15.70;68.60;;;;;;4963717;28;20042;-87
2023/09/03 03:56:06;;;;;;;3.80;1.88;;;15.60;67.80;;;;;;4964358;28;20102;-88
2023/09/03 03:58:34;;;;;;;13.68;2.40;;;15.60;75.20;;;;;;4945723;28;20404;-88
2023/09/03 04:01:09;;;;;;;3.28;1.88;;;15.70;80.90;;;;;;4964253;28;20050;-88
2023/09/03 04:03:36;;;;;;;2.63;1.65;;;15.60;89.10;;;;;;4957161;28;20445;-88
2023/09/03 04:06:02;;;;;;;3.15;1.35;;;15.60;91.70;;;;;;4957268;28;20035;-87
2023/09/03 04:08:31;;;;;;;2.25;1.40;;;15.60;89.10;;;;;;4958079;28;20039;-88
2023/09/03 04:11:06;;;;;;;4.72;1.90;;;15.60;83.30;;;;;;4948332;28;20039;-88
2023/09/03 04:13:32;;;;;;;1.80;1.45;;;15.60;90.10;;;;;;4964164;28;20023;-88
2023/09/03 04:15:59;;;;;;;3.45;1.45;;;15.60;93.20;;;;;;4953530;28;20476;-88
2023/09/03 04:18:27;;;;;;;2.30;1.05;;;15.60;98.20;;;;;;4963399;28;20069;-88
2023/09/03 04:20:55;;;;;;;3.65;1.42;;;15.60;97.20;;;;;;4958726;28;20039;-88
2023/09/03 04:23:26;;;;;;;2.80;1.15;;;15.50;99.90;;;;;;4943821;28;20388;-89
2023/09/03 04:25:56;;;;;;;2.55;1.50;;;15.60;99.90;;;;;;4941609;28;20062;-88
2023/09/03 04:28:26;;;;;;;2.88;1.35;;;15.60;99.90;;;;;;4943473;28;20047;-88
2023/09/03 04:31:08;;;;;;;2.95;1.63;;;15.60;99.90;;;;;;4964009;28;20046;-88
2023/09/03 04:33:38;;;;;;;1.73;1.27;;;15.70;99.90;;;;;;4951184;28;20054;-89
2023/09/03 04:36:05;;;;;;;5.30;1.77;;;15.70;99.90;;;;;;4956876;28;20054;-89
2023/09/03 04:38:34;;;;;;;2.90;1.45;;;15.70;99.90;;;;;;4946218;28;20035;-88
2023/09/03 04:41:05;;;;;;;3.03;1.75;;;15.70;99.90;;;;;;4943319;28;20093;-88
2023/09/03 04:43:45;;;;;;;2.70;1.77;;;15.70;99.90;;;;;;4960348;28;20043;-88
2023/09/03 04:46:14;;;;;;;3.00;1.08;;;15.80;99.90;;;;;;4952771;28;20043;-88
2023/09/03 04:48:40;;;;;;;2.25;1.60;;;15.80;99.90;;;;;;4940833;28;20057;-88
2023/09/03 04:51:07;;;;;;;4.30;2.10;;;15.80;99.90;;;;;;4941175;28;20054;-87
2023/09/03 04:53:34;;;;;;;1.63;1.50;;;15.80;99.90;;;;;;4959385;28;20090;-88
2023/09/03 04:56:04;;;;;;;2.40;1.60;;;15.80;99.90;;;;;;4947461;28;20050;-88
2023/09/03 04:58:32;;;;;;;2.10;1.90;;;15.80;99.90;;;;;;4958780;28;20062;-87
2023/09/03 05:00:59;;;;;;;2.92;1.40;;;15.80;99.90;;;;;;4938952;28;20054;-89
2023/09/03 05:03:27;;;;;;;3.38;1.27;;;15.80;99.90;;;;;;4950583;28;20047;-87
2023/09/03 05:05:53;;;;;;;1.88;1.42;;;15.80;99.90;;;;;;4958197;28;20042;-88
2023/09/03 05:08:19;;;;;;;3.55;2.55;;;15.80;99.60;;;;;;4938151;28;20046;-88
2023/09/03 05:10:47;;;;;;;2.15;0.95;;;15.80;94.90;;;;;;4955908;28;20047;-89
2023/09/03 05:13:14;;;;;;;2.00;0.90;;;15.80;90.90;;;;;;4942004;28;20424;-88
2023/09/03 05:15:40;;;;;;;10.13;2.85;;;15.80;87.60;;;;;;4953191;28;20051;-89
2023/09/03 05:18:07;;;;;;;3.65;1.27;;;15.80;82.50;;;;;;4941054;28;20393;-89
2023/09/03 05:20:38;;;;;;;2.40;1.50;;;15.80;76.90;;;;;;4945149;28;20047;-89
2023/09/03 05:23:05;;;;;;;5.55;1.40;;;15.90;70.40;;;;;;4958923;28;20070;-89
2023/09/03 05:25:32;;;;;;;1.20;0.80;;;15.80;61.30;;;;;;4939762;28;20054;-89
2023/09/03 05:27:59;;;;;;;3.70;1.63;;;15.90;52.30;;;;;;4943313;28;20043;-89
2023/09/03 05:30:26;;;;;;;2.00;1.77;;;15.90;43.90;;;;;;4960900;28;20476;-89
2023/09/03 05:32:52;;;;;;;2.75;1.80;;;16.00;36.50;;;;;;4948030;29;20035;-89
2023/09/03 05:35:18;;;;;;;1.80;1.02;;;16.00;22.00;;;;;;4950808;28;20051;-89
2023/09/03 05:37:45;;;;;;;1.63;0.80;;;16.10;12.70;;;;;;4948605;28;20066;-89
2023/09/03 05:40:12;;;;;;;2.72;1.00;;;16.10;1.00;;;;;;4953105;28;20051;-89
2023/09/03 05:42:39;;;;;;;0.73;0.50;;;16.20;1.00;;;;;;4948063;29;20043;-89
2023/09/03 05:45:05;;;;;;;2.92;0.88;;;16.20;1.00;;;;;;4968655;28;20047;-89
2023/09/03 05:47:32;;;;;;;2.25;1.35;;;16.30;1.00;;;;;;4948144;28;20516;-88
2023/09/03 05:49:59;;;;;;;2.97;1.10;;;16.30;1.00;;;;;;4951871;28;20027;-89
2023/09/03 05:52:25;;;;;;;2.25;0.88;;;16.40;1.00;;;;;;4956395;28;20047;-89
2023/09/03 05:54:51;;;;;;;2.72;1.65;;;16.40;1.00;;;;;;4955868;28;20058;-88
2023/09/03 05:57:18;;;;;;;3.78;1.00;;;16.40;1.00;;;;;;4943091;28;20039;-89
2023/09/03 05:59:50;;;;;;;6.10;2.22;;;16.40;1.00;;;;;;4958014;28;20370;-89
2023/09/03 06:02:18;;;;;;;3.08;1.30;;;16.50;1.00;;;;;;4963220;28;20043;-89
2023/09/03 06:04:44;;;;;;;2.35;0.82;;;16.60;1.00;;;;;;4948872;28;20504;-89
2023/09/03 06:07:10;;;;;;;3.42;1.30;;;16.70;1.00;;;;;;4960647;28;20043;-88
2023/09/03 06:09:38;;;;;;;2.47;0.90;;;16.80;1.00;;;;;;4941551;28;20408;-88
2023/09/03 06:12:04;;;;;;;2.67;1.23;;;17.00;1.00;;;;;;4957013;28;20045;-89
2023/09/03 06:14:31;;;;;;;1.30;0.65;;;17.10;99.90;;;;;;4954304;28;20050;-89
2023/09/03 06:16:57;;;;;;;2.47;1.58;;;17.20;99.90;;;;;;4952557;28;20031;-89
2023/09/03 06:19:23;;;;;;;3.20;1.08;;;17.30;99.90;;;;;;4963764;28;20046;-88
2023/09/03 06:21:52;;;;;;;1.42;1.00;;;17.40;99.90;;;;;;4960655;28;20130;-88
2023/09/03 06:24:18;;;;;;;1.52;0.70;;;17.50;99.90;;;;;;4969751;28;20015;-88
2023/09/03 06:26:45;;;;;;;3.58;1.52;;;17.50;99.90;;;;;;4960094;28;20036;-88
2023/09/03 06:29:14;;;;;;;1.63;1.17;;;17.60;99.90;;;;;;4963844;28;20469;-87
2023/09/03 06:31:40;;;;;;;1.63;0.90;;;17.70;99.90;;;;;;4951399;29;20050;-88
2023/09/03 06:34:06;;;;;;;1.33;0.80;;;17.70;99.90;;;;;;4957452;28;20043;-88
2023/09/03 06:36:32;;;;;;;2.83;1.40;;;17.70;99.90;;;;;;4952165;28;20039;-88
2023/09/03 06:38:59;;;;;;;2.75;1.17;;;17.70;99.90;;;;;;4964355;28;20038;-92
2023/09/03 06:41:25;;;;;;;1.88;0.80;;;17.70;99.90;;;;;;4967860;28;20027;-90
2023/09/03 06:43:51;;;;;;;2.75;1.08;;;17.70;99.90;;;;;;4971842;28;20036;-86
2023/09/03 06:46:17;;;;;;;2.05;1.15;;;17.70;99.90;;;;;;4968669;28;20369;-89
2023/09/03 06:48:43;;;;;;;2.85;1.50;;;17.70;99.90;;;;;;4964696;28;20035;-89
2023/09/03 06:51:10;;;;;;;1.98;1.27;;;17.80;99.90;;;;;;4951531;28;20107;-91
2023/09/03 06:53:36;;;;;;;2.55;1.27;;;17.80;99.90;;;;;;4964482;28;20116;-85
2023/09/03 06:56:03;;;;;;;3.03;1.70;;;17.90;99.90;;;;;;4944650;28;20047;-92
2023/09/03 06:58:29;;;;;;;3.28;1.63;;;18.00;99.90;;;;;;4951667;28;20043;-84
2023/09/03 07:00:55;;;;;;;2.25;1.30;;;18.10;99.90;;;;;;4964837;28;20039;-87
2023/09/03 07:03:21;;;;;;;3.17;0.90;;;18.20;99.10;;;;;;4975210;28;20031;-89
2023/09/03 07:05:48;;;;;;;3.78;1.17;;;18.30;68.70;;;;;;4969977;28;20093;-90
2023/09/03 07:08:14;;;;;;;4.15;1.50;;;18.30;67.30;;;;;;4965796;28;20031;-87
2023/09/03 07:10:40;;;;;;;1.50;1.15;;;18.50;51.40;;;;;;4964540;28;20035;-88
2023/09/03 07:13:07;;;;;;;1.65;1.10;;;18.50;29.00;;;;;;4964920;28;20035;-88
2023/09/03 07:15:36;;;;;;;2.78;1.20;;;18.80;1.00;;;;;;4962421;28;20031;-85
2023/09/03 07:18:03;;;;;;;2.65;1.30;;;18.90;1.00;;;;;;4962582;28;20035;-89
2023/09/03 07:20:29;;;;;;;3.38;1.20;;;19.00;1.00;;;;;;4955045;28;20043;-90
2023/09/03 07:22:55;;;;;;;1.73;1.17;;;19.00;1.00;;;;;;4953668;28;20043;-88
2023/09/03 07:25:22;;;;;;;22.15;3.50;;;19.10;1.00;;;;;;4960292;28;20074;-87
2023/09/03 07:27:48;;;;;;;2.05;1.17;;;19.10;1.00;;;;;;4966565;28;20476;-86
2023/09/03 07:30:15;;;;;;;1.70;0.82;;;19.30;1.00;;;;;;4961027;28;20042;-86
2023/09/03 07:32:41;;;;;;;2.17;1.10;;;19.30;1.00;;;;;;4963599;28;20034;-87
2023/09/03 07:35:08;;;;;;;2.92;1.05;;;19.30;1.00;;;;;;4962341;28;20058;-86
2023/09/03 07:37:35;;;;;;;2.03;1.02;;;19.70;1.00;;;;;;4962750;28;20039;-87
2023/09/03 07:40:03;;;;;;;1.83;1.42;;;19.70;1.00;;;;;;4960160;28;20385;-86
2023/09/03 07:42:29;;;;;;;2.85;1.05;;;19.60;99.90;;;;;;4940122;28;20361;-87
2023/09/03 07:44:55;;;;;;;3.60;1.73;;;19.60;99.90;;;;;;4967634;28;20034;-84
2023/09/03 07:47:22;;;;;;;1.50;1.00;;;19.40;1.00;;;;;;4968368;28;20043;-84
2023/09/03 07:49:48;;;;;;;1.83;0.80;;;19.30;1.00;;;;;;4955696;28;20050;-85
2023/09/03 07:52:16;;;;;;;2.47;1.30;;;19.60;1.00;;;;;;4960013;28;20365;-85
2023/09/03 07:54:42;;;;;;;2.50;1.23;;;19.70;99.90;;;;;;4964950;28;20060;-85
2023/09/03 07:57:08;;;;;;;3.05;1.20;;;19.80;99.90;;;;;;4966709;28;20436;-86
2023/09/03 07:59:35;;;;;;;2.53;1.00;;;20.00;99.90;;;;;;4964285;28;20050;-86
2023/09/03 08:02:02;;;;;;;1.73;1.08;;;20.00;99.90;;;;;;4976153;28;20035;-87
2023/09/03 08:04:28;;;;;;;2.25;1.17;;;19.80;99.90;;;;;;4985437;28;20023;-87
2023/09/03 08:06:54;;;;;;;1.95;1.00;;;19.80;99.90;;;;;;4979095;28;20046;-84
2023/09/03 08:09:23;;;;;;;2.83;1.20;;;19.80;99.90;;;;;;4969609;28;20043;-87
2023/09/03 08:11:51;;;;;;;1.65;0.82;;;19.70;99.90;;;;;;4965746;28;20031;-85
2023/09/03 08:14:17;;;;;;;2.60;0.85;;;19.70;99.90;;;;;;4982207;28;20045;-87
2023/09/03 08:16:43;;;;;;;2.58;1.40;;;19.80;99.90;;;;;;4970193;28;20486;-89
2023/09/03 08:19:09;;;;;;;2.28;1.13;;;19.90;99.90;;;;;;4962734;28;20035;-87
2023/09/03 08:21:35;;;;;;;1.50;0.90;;;19.80;99.90;;;;;;4961659;28;20039;-86
2023/09/03 08:24:02;;;;;;;2.22;0.98;;;19.90;99.90;;;;;;4960201;28;20058;-88
2023/09/03 08:26:28;;;;;;;0.88;0.57;;;20.00;99.90;;;;;;4961724;28;20250;-87
2023/09/03 08:28:54;;;;;;;1.33;0.68;;;20.00;99.90;;;;;;4955868;29;20047;-87
2023/09/03 08:31:20;;;;;;;3.40;1.25;;;20.10;99.90;;;;;;4967112;28;20065;-86
2023/09/03 08:33:46;;;;;;;1.67;1.27;;;20.20;99.90;;;;;;4952897;28;20042;-88
2023/09/03 08:36:12;;;;;;;2.78;0.93;;;20.20;99.90;;;;;;4967095;28;20031;-85
2023/09/03 08:38:38;;;;;;;1.23;0.73;;;20.30;99.90;;;;;;4963069;28;20381;-88
2023/09/03 08:41:04;;;;;;;1.98;1.02;;;20.40;99.90;;;;;;4961246;28;20031;-85
2023/09/03 08:43:31;;;;;;;1.55;0.60;;;20.60;99.90;;;;;;4961925;28;20054;-88
2023/09/03 08:46:05;;;;;;;3.25;1.05;;;20.60;99.90;;;;;;4962452;28;20046;-87
2023/09/03 08:48:32;;;;;;;2.28;1.20;;;20.80;99.90;;;;;;4959180;28;20449;-88
2023/09/03 08:50:59;;;;;;;3.97;0.90;;;20.80;99.90;;;;;;4959490;28;20054;-84
2023/09/03 08:53:26;;;;;;;1.40;0.80;;;20.90;99.90;;;;;;4940965;28;20047;-83
2023/09/03 08:55:53;;;;;;;1.52;0.77;;;20.90;99.90;;;;;;4964588;28;20066;-87
2023/09/03 08:58:20;;;;;;;1.23;0.60;;;21.10;99.90;;;;;;4962109;28;20054;-87
2023/09/03 09:00:46;;;;;;;1.00;0.63;;;21.30;99.90;;;;;;4941259;28;20054;-87
2023/09/03 09:03:16;;;;;;;2.25;1.30;;;21.20;99.90;;;;;;4961612;28;20031;-89
2023/09/03 09:05:43;;;;;;;2.72;0.90;;;21.50;99.90;;;;;;4964468;28;20043;-86
2023/09/03 09:08:09;;;;;;;2.47;0.80;;;21.80;50.70;;;;;;4961019;28;20476;-85
2023/09/03 09:10:40;;;;;;;1.77;1.58;;;21.80;47.60;;;;;;4961610;28;20023;-86
2023/09/03 09:13:08;;;;;;;1.55;0.85;;;22.20;20.90;;;;;;4961579;28;20050;-85
2023/09/03 09:15:36;;;;;;;1.00;0.60;;;22.60;1.00;;;;;;4960218;28;20043;-87
2023/09/03 09:18:08;;;;;;;1.85;0.90;;;22.90;1.00;;;;;;4939869;28;20043;-87
2023/09/03 09:20:40;;;;;;;1.85;1.00;;;23.10;1.00;;;;;;4962079;28;20042;-84
2023/09/03 09:23:07;;;;;;;1.42;0.50;;;22.60;1.00;;;;;;4966072;28;20038;-89
2023/09/03 09:25:35;;;;;;;0.80;0.50;;;22.80;1.00;;;;;;4957173;28;20376;-88
2023/09/03 09:28:12;;;;;;;2.35;1.17;;;23.20;1.00;;;;;;4958752;28;20047;-85
2023/09/03 09:30:59;;;;;;;1.65;0.47;;;22.70;1.00;;;;;;4957009;28;20036;-87
2023/09/03 09:33:25;;;;;;;3.13;0.60;;;23.40;1.00;;;;;;4957501;28;20043;-87
2023/09/03 09:35:52;;;;;;;1.70;0.88;;;24.00;99.90;;;;;;4961060;28;20043;-85
2023/09/03 09:38:18;;;;;;;1.13;0.60;;;23.90;99.90;;;;;;4967204;28;20062;-87
2023/09/03 09:40:45;;;;;;;1.95;0.77;;;23.40;99.90;;;;;;4962013;28;20058;-88
2023/09/03 09:43:11;;;;;;;2.17;1.10;;;23.50;1.00;;;;;;4958398;28;20039;-90
2023/09/03 09:45:46;;;;;;;1.08;0.65;;;23.70;99.90;;;;;;4961499;28;20046;-88
2023/09/03 09:48:13;;;;;;;1.52;0.68;;;23.30;99.90;;;;;;4960755;28;20046;-87
2023/09/03 09:50:40;;;;;;;2.83;0.93;;;23.30;1.00;;;;;;4958115;28;20035;-87
2023/09/03 09:53:24;;;;;;;2.33;0.73;;;23.50;1.00;;;;;;4961701;28;20031;-88
2023/09/03 09:56:00;;;;;;;1.02;0.80;;;23.90;99.90;;;;;;4958408;28;20201;-88
2023/09/03 09:58:37;;;;;;;1.20;0.57;;;23.90;99.90;;;;;;4960602;28;20042;-88
2023/09/03 10:01:04;;;;;;;1.05;0.77;;;23.90;99.90;;;;;;4966543;28;20481;-88
2023/09/03 10:03:56;;;;;;;1.40;0.88;;;23.60;99.90;;;;;;4968390;28;20032;-87
2023/09/03 10:06:26;;;;;;;1.13;0.57;;;23.90;99.90;;;;;;4961834;28;20051;-89
2023/09/03 10:08:53;;;;;;;2.00;0.57;;;24.10;99.90;;;;;;4955294;28;20374;-88
2023/09/03 10:11:20;;;;;;;1.10;0.82;;;24.00;99.90;;;;;;4958939;28;20042;-87
2023/09/03 10:13:49;;;;;;;1.30;0.63;;;23.70;99.90;;;;;;4965306;28;20038;-88
2023/09/03 10:16:21;;;;;;;0.93;0.55;;;23.90;99.90;;;;;;4963705;28;20043;-89
2023/09/03 10:18:48;;;;;;;1.15;0.88;;;24.20;99.90;;;;;;4952426;28;20468;-89
2023/09/03 10:21:23;;;;;;;1.05;0.77;;;24.30;99.90;;;;;;4967997;28;20031;-86
2023/09/03 10:23:51;;;;;;;1.60;0.70;;;24.30;99.90;;;;;;4966257;28;20035;-81
2023/09/03 10:26:23;;;;;;;1.15;0.60;;;24.10;99.90;;;;;;4965563;28;20062;-88
2023/09/03 10:28:55;;;;;;;2.22;1.35;;;23.90;99.90;;;;;;4965868;28;20062;-87
2023/09/03 10:31:23;;;;;;;1.00;0.50;;;24.00;99.90;;;;;;4970754;28;20050;-86
2023/09/03 10:33:50;;;;;;;2.45;0.80;;;24.10;99.90;;;;;;4970760;28;20035;-89
2023/09/03 10:36:20;;;;;;;0.98;0.50;;;24.10;99.90;;;;;;4976092;28;20031;-89
2023/09/03 10:38:47;;;;;;;1.45;0.80;;;24.10;99.90;;;;;;4965127;28;20039;-83
2023/09/03 10:41:25;;;;;;;1.55;0.75;;;24.20;99.90;;;;;;4967619;28;20031;-87
2023/09/03 10:43:52;;;;;;;3.15;1.40;;;23.90;99.90;;;;;;4968043;28;20034;-84
2023/09/03 10:46:21;;;;;;;2.15;1.30;;;24.10;99.90;;;;;;4971381;28;20038;-85
2023/09/03 10:49:05;;;;;;;1.53;0.80;;;24.10;99.90;;;;;;4965417;28;20047;-88
2023/09/03 10:51:33;;;;;;;1.45;1.00;;;24.00;99.90;;;;;;4961378;28;20040;-92
2023/09/03 10:54:15;;;;;;;1.58;0.98;;;24.00;99.90;;;;;;4964271;28;20039;-90
2023/09/03 10:57:06;;;;;;;1.92;0.75;;;24.30;99.90;;;;;;4966188;28;20465;-90
2023/09/03 10:59:57;;;;;;;1.70;0.90;;;24.60;99.90;;;;;;4940328;28;20047;-87
2023/09/03 11:02:27;;;;;;;1.65;1.00;;;24.50;99.90;;;;;;4966305;28;20031;-84
2023/09/03 11:05:12;;;;;;;1.65;0.70;;;24.60;99.90;;;;;;4966021;28;20031;-85
2023/09/03 11:07:42;;;;;;;1.90;0.90;;;24.40;99.90;;;;;;4948341;28;20101;-88
2023/09/03 11:10:20;;;;;;;;;;;24.60;99.90;;;;;;4969853;28;20031;-91
2023/09/03 11:12:47;;;;;;;2.17;1.05;;;24.50;99.90;;;;;;4970364;28;19909;-88
2023/09/03 11:15:17;;;;;;;1.65;0.77;;;24.70;99.90;;;;;;4950422;28;20043;-91
2023/09/03 11:17:56;;;;;;;1.85;0.90;;;24.90;99.90;;;;;;4969619;28;20050;-86
2023/09/03 11:20:33;;;;;;;1.50;1.10;;;24.80;99.90;;;;;;4963464;28;20031;-88
2023/09/03 11:23:00;;;;;;;1.60;0.68;;;24.80;99.90;;;;;;4964408;28;20043;-89
2023/09/03 11:25:37;;;;;;;1.02;0.70;;;24.80;99.90;;;;;;4965895;28;20038;-91
2023/09/03 11:28:11;;;;;;;1.55;0.70;;;24.70;99.90;;;;;;4959031;28;20047;-92
2023/09/03 11:30:39;;;;;;;2.03;0.65;;;24.80;99.90;;;;;;4966745;28;20031;-90
2023/09/03 11:33:08;;;;;;;1.98;0.75;;;24.70;99.90;;;;;;4962371;28;20053;-89
2023/09/03 11:35:45;;;;;;;1.00;0.60;;;24.80;99.90;;;;;;4965747;28;20039;-88
2023/09/03 11:38:11;;;;;;;1.45;0.57;;;24.50;99.90;;;;;;4963591;28;20038;-89
2023/09/03 11:40:39;;;;;;;1.65;0.98;;;24.30;99.90;;;;;;4954421;28;20044;-89
2023/09/03 11:43:10;;;;;;;0.73;0.50;;;24.50;99.90;;;;;;4957201;28;20062;-91
2023/09/03 11:45:37;;;;;;;1.75;1.13;;;24.70;99.90;;;;;;4962945;28;20050;-88
2023/09/03 11:48:06;;;;;;;1.15;0.98;;;24.70;99.90;;;;;;4966172;28;20035;-87
2023/09/03 11:50:34;;;;;;;1.40;0.67;;;24.90;99.90;;;;;;4961735;28;20050;-90
2023/09/03 11:53:04;;;;;;;1.45;0.75;;;24.90;99.90;;;;;;4970162;28;20030;-90
2023/09/03 11:55:43;;;;;;;1.58;0.98;;;24.60;99.90;;;;;;4943979;28;20059;-86
2023/09/03 11:58:11;;;;;;;1.15;0.70;;;24.60;99.90;;;;;;4964383;28;20027;-89
2023/09/03 12:00:38;;;;;;;2.35;1.27;;;24.70;99.90;;;;;;4965862;28;20054;-90
2023/09/03 12:03:05;;;;;;;1.65;0.80;;;25.10;99.90;;;;;;4963307;28;20039;-88
2023/09/03 12:05:36;;;;;;;1.23;0.68;;;25.30;99.90;;;;;;4948529;28;20042;-88
2023/09/03 12:08:06;;;;;;;1.80;0.80;;;25.10;99.90;;;;;;4955032;28;20059;-89
2023/09/03 12:10:32;;;;;;;;;;;25.20;99.90;;;;;;4957764;28;20043;-89
2023/09/03 12:13:03;;;;;;;1.50;0.93;;;25.30;99.90;;;;;;4966395;28;19925;-89
2023/09/03 12:15:31;;;;;;;1.50;1.13;;;25.20;91.30;;;;;;4945210;28;20051;-90
2023/09/03 12:18:10;;;;;;;1.05;0.52;;;24.90;95.90;;;;;;4960132;28;20031;-88
2023/09/03 12:20:39;;;;;;;2.37;1.20;;;24.80;99.90;;;;;;4967740;28;20041;-89
2023/09/03 12:23:10;;;;;;;1.15;0.70;;;24.90;99.90;;;;;;4959911;28;20365;-87
2023/09/03 12:25:37;;;;;;;1.05;0.75;;;25.00;90.40;;;;;;4962697;28;20095;-89
2023/09/03 12:28:04;;;;;;;1.90;0.90;;;25.20;86.00;;;;;;4945882;28;20481;-86
2023/09/03 12:30:54;;;;;;;1.90;0.82;;;25.20;69.60;;;;;;4958746;28;20038;-88
2023/09/03 12:33:20;;;;;;;;;;;25.00;84.40;;;;;;4967194;28;20036;-89
2023/09/03 12:36:05;;;;;;;1.05;0.70;;;25.40;62.40;;;;;;4962263;28;19906;-84
2023/09/03 12:38:47;;;;;;;1.15;0.60;;;25.60;45.10;;;;;;4964222;28;20035;-92
2023/09/03 12:41:13;;;;;;;1.98;0.43;;;25.30;34.40;;;;;;4966458;28;20031;-87
2023/09/03 12:43:41;;;;;;;1.23;0.60;;;25.20;36.70;;;;;;4958163;28;20132;-90
2023/09/03 12:46:09;;;;;;;0.88;0.50;;;25.00;24.40;;;;;;4962463;28;20158;-86
2023/09/03 12:48:35;;;;;;;0.93;0.65;;;24.90;29.60;;;;;;4943290;28;20050;-87
2023/09/03 12:51:02;;;;;;;1.98;0.70;;;25.20;10.10;;;;;;4965763;28;20031;-88
2023/09/03 12:53:29;;;;;;;0.93;0.60;;;25.40;1.00;;;;;;4958551;28;20023;-91
2023/09/03 12:55:55;;;;;;;1.33;0.57;;;25.50;2.60;;;;;;4980942;28;20031;-89
2023/09/03 12:58:22;;;;;;;1.50;0.75;;;25.60;5.60;;;;;;4977215;28;20506;-88
2023/09/03 13:00:50;;;;;;;1.40;0.68;;;25.50;5.50;;;;;;4977307;28;20062;-87